ELS weather

Ben Schoeman Airport
East London, Eastern Cape, South Africa

Public forecast

Using degrees Celsius for public forecast. Weather courtesy of forecast.io.

METAR (pilot weather report)

Report is more than 2 hours old.

Retrieved 2018/12/12 19:00 UTC (6 hours ago):

FAEL 121900Z 20003KT 140V290 9999 FEW021 SCT030 20/18 Q1018

TAF (pilot weather forecast)

Forecast is more than 12 hours old.

Retrieved 2018/08/22 03:00 UTC (4 months ago):

TAF FAEL 220300Z 2203/2212 VRB02KT 4000 -RA BKN003 OVC005 BECMG 2209/2210 18005KT 9999 BKN015 TX18/2211Z TN10/2203Z